Time;durP1;ratioP1;P1;durP2;ratioP2;P2;SDS_P1;SDS_P2;PMS_P1;PMS_P2;Temp;Humidity;BMP_temperature;BMP_pressure;BME280_temperature;BME280_humidity;BME280_pressure;Samples;Min_cycle;Max_cycle;Signal;HPM_P1;HPM_P2
2024/01/15 00:00:20;;;;;;;20.80;11.17;;;-1.30;99.90;;;;;;5138593;27;20183;-41
2024/01/15 00:02:46;;;;;;;21.80;11.97;;;-1.40;1.00;;;;;;5121876;27;20206;-41
2024/01/15 00:05:12;;;;;;;17.97;10.33;;;-1.30;1.00;;;;;;5139156;27;20207;-42
2024/01/15 00:07:38;;;;;;;21.13;10.93;;;-1.40;39.40;;;;;;5138390;27;20417;-48
2024/01/15 00:10:04;;;;;;;18.90;11.00;;;-1.50;99.90;;;;;;5138860;27;20180;-43
2024/01/15 00:12:30;;;;;;;25.00;12.27;;;-1.40;99.90;;;;;;5137824;27;20248;-41
2024/01/15 00:14:55;;;;;;;17.33;10.50;;;-1.50;1.00;;;;;;5139057;27;20876;-45
2024/01/15 00:17:21;;;;;;;22.30;11.27;;;-1.40;1.00;;;;;;5138204;27;20175;-42
2024/01/15 00:19:46;;;;;;;19.57;11.87;;;-1.50;1.00;;;;;;5138927;27;20205;-39
2024/01/15 00:22:12;;;;;;;17.63;9.67;;;-1.50;1.00;;;;;;5139333;27;20580;-43
2024/01/15 00:24:37;;;;;;;23.30;12.57;;;-1.40;28.30;;;;;;5139307;27;20299;-41
2024/01/15 00:27:03;;;;;;;20.30;11.03;;;-1.40;1.00;;;;;;5139630;27;20300;-42
2024/01/15 00:29:29;;;;;;;19.30;10.87;;;-1.40;99.90;;;;;;5138828;27;20263;-42
2024/01/15 00:31:55;;;;;;;19.30;10.57;;;-1.40;99.90;;;;;;5139162;27;20424;-43
2024/01/15 00:34:20;;;;;;;18.20;11.63;;;-1.40;99.90;;;;;;5139297;27;20560;-41
2024/01/15 00:36:46;;;;;;;21.87;10.60;;;-1.40;99.90;;;;;;5139394;27;20206;-42
2024/01/15 00:39:12;;;;;;;22.03;11.20;;;-1.40;99.90;;;;;;5136871;27;20190;-42
2024/01/15 00:41:38;;;;;;;17.80;11.13;;;-1.40;99.90;;;;;;5136988;27;20850;-42
2024/01/15 00:44:03;;;;;;;22.83;11.70;;;-1.40;99.90;;;;;;5136270;27;20229;-41
2024/01/15 00:46:29;;;;;;;21.07;11.33;;;-1.50;99.90;;;;;;5137744;27;20179;-42
2024/01/15 00:48:54;;;;;;;24.10;10.93;;;-1.50;1.00;;;;;;5137393;27;20167;-41
2024/01/15 00:51:20;;;;;;;17.57;9.97;;;-1.60;1.00;;;;;;5137051;27;20183;-43
2024/01/15 00:53:45;;;;;;;18.00;10.63;;;-1.60;1.00;;;;;;5135794;27;20179;-51
2024/01/15 00:56:11;;;;;;;20.83;10.67;;;-1.60;99.90;;;;;;5138436;27;20183;-42
2024/01/15 00:58:37;;;;;;;19.80;10.13;;;-1.60;66.40;;;;;;5138027;27;20538;-43
2024/01/15 01:01:03;;;;;;;18.30;10.00;;;-1.60;99.90;;;;;;5137512;27;20187;-41
2024/01/15 01:03:28;;;;;;;15.63;10.03;;;-1.60;99.90;;;;;;5136748;27;20427;-41
2024/01/15 01:05:54;;;;;;;21.57;11.30;;;-1.60;99.90;;;;;;5137381;27;20167;-42
2024/01/15 01:08:20;;;;;;;22.77;11.80;;;-1.60;99.90;;;;;;5137525;27;20175;-43
2024/01/15 01:10:45;;;;;;;19.60;11.90;;;-1.70;99.90;;;;;;5135649;27;20179;-41
2024/01/15 01:13:11;;;;;;;19.40;11.03;;;-1.70;1.00;;;;;;5119376;27;20183;-43
2024/01/15 01:15:37;;;;;;;19.93;11.53;;;-1.70;1.00;;;;;;5138777;27;20189;-43
2024/01/15 01:18:03;;;;;;;19.87;10.00;;;-1.70;1.00;;;;;;5138082;27;20179;-43
2024/01/15 01:20:30;;;;;;;21.80;11.57;;;-1.70;1.00;;;;;;5139087;27;20441;-41
2024/01/15 01:22:55;;;;;;;24.37;10.80;;;-1.70;1.00;;;;;;5137637;27;20421;-42
2024/01/15 01:25:21;;;;;;;21.53;10.83;;;-1.70;1.00;;;;;;5137268;27;20480;-42
2024/01/15 01:27:46;;;;;;;20.80;10.40;;;-1.70;1.00;;;;;;5137068;27;20247;-43
2024/01/15 01:30:12;;;;;;;19.93;10.70;;;-1.60;1.00;;;;;;5136876;27;20179;-42
2024/01/15 01:32:37;;;;;;;23.73;11.40;;;-1.60;1.00;;;;;;5135143;27;20238;-40
2024/01/15 01:35:03;;;;;;;22.47;11.60;;;-1.60;1.00;;;;;;5135941;27;20186;-42
2024/01/15 01:37:29;;;;;;;18.37;10.30;;;-1.50;1.00;;;;;;5135525;28;20195;-42
2024/01/15 01:39:55;;;;;;;18.67;11.03;;;-1.50;1.00;;;;;;5136016;28;20401;-43
2024/01/15 01:42:20;;;;;;;18.83;10.73;;;-1.40;1.00;;;;;;5136370;28;20248;-40
2024/01/15 01:44:46;;;;;;;22.53;11.27;;;-1.40;1.00;;;;;;5137648;28;20206;-42
2024/01/15 01:47:12;;;;;;;19.53;11.33;;;-1.40;1.00;;;;;;5137530;27;20259;-42
2024/01/15 01:49:38;;;;;;;19.90;10.50;;;-1.40;1.00;;;;;;5140403;27;20190;-42
2024/01/15 01:52:06;;;;;;;21.20;10.40;;;-1.30;1.00;;;;;;5141995;27;20436;-44
2024/01/15 01:54:32;;;;;;;18.47;9.80;;;-1.30;1.00;;;;;;5141739;27;20473;-41
2024/01/15 01:56:58;;;;;;;15.57;10.17;;;-1.30;1.00;;;;;;5141009;27;20436;-42
2024/01/15 01:59:25;;;;;;;19.43;9.70;;;-1.30;1.00;;;;;;5141970;27;20431;-43
2024/01/15 02:01:51;;;;;;;20.00;10.40;;;-1.30;1.00;;;;;;5140302;27;20552;-42
2024/01/15 02:04:17;;;;;;;21.27;11.77;;;-1.30;1.00;;;;;;5141246;27;20830;-43
2024/01/15 02:06:42;;;;;;;18.83;9.90;;;-1.30;1.00;;;;;;5141490;27;20186;-41
2024/01/15 02:09:09;;;;;;;19.93;10.07;;;-1.30;1.00;;;;;;5141124;27;20421;-42
2024/01/15 02:11:35;;;;;;;19.70;10.77;;;-1.40;1.00;;;;;;5141725;27;20560;-41
2024/01/15 02:14:02;;;;;;;16.87;9.80;;;-1.30;1.00;;;;;;5140340;27;20505;-41
2024/01/15 02:16:27;;;;;;;19.00;10.90;;;-1.30;1.00;;;;;;5141275;27;20912;-42
2024/01/15 02:18:53;;;;;;;19.07;10.00;;;-1.30;1.00;;;;;;5140787;27;20749;-41
2024/01/15 02:21:18;;;;;;;21.90;10.97;;;-1.40;1.00;;;;;;5140983;27;20175;-42
2024/01/15 02:23:44;;;;;;;20.53;11.50;;;-1.40;1.00;;;;;;5140170;27;20242;-42
2024/01/15 02:26:10;;;;;;;21.97;10.23;;;-1.40;1.00;;;;;;5141195;27;20290;-44
2024/01/15 02:28:36;;;;;;;20.63;10.70;;;-1.40;1.00;;;;;;5142005;27;20448;-43
2024/01/15 02:31:02;;;;;;;22.70;11.30;;;-1.40;1.00;;;;;;5140312;27;20545;-43
2024/01/15 02:33:27;;;;;;;20.03;9.90;;;-1.40;17.70;;;;;;5140629;27;20193;-42
2024/01/15 02:35:54;;;;;;;18.53;9.90;;;-1.40;1.00;;;;;;5140717;27;20192;-42
2024/01/15 02:38:19;;;;;;;19.67;10.30;;;-1.50;1.00;;;;;;5138592;27;20207;-43
2024/01/15 02:40:45;;;;;;;17.80;10.80;;;-1.50;29.50;;;;;;5139959;27;20822;-41
2024/01/15 02:43:11;;;;;;;16.93;9.87;;;-1.50;1.00;;;;;;5138696;27;20175;-42
2024/01/15 02:45:37;;;;;;;20.50;10.73;;;-1.40;1.00;;;;;;5138513;27;20885;-41
2024/01/15 02:48:03;;;;;;;14.63;8.47;;;-0.90;1.00;;;;;;5139497;27;20681;-42
2024/01/15 02:50:28;;;;;;;18.73;9.90;;;-0.40;99.90;;;;;;5139573;27;20309;-42
2024/01/15 02:52:54;;;;;;;18.37;10.13;;;-0.30;99.90;;;;;;5140665;27;20190;-46
2024/01/15 02:55:19;;;;;;;19.70;9.60;;;-0.50;1.00;;;;;;5139405;27;20246;-42
2024/01/15 02:57:45;;;;;;;18.70;9.70;;;-0.60;1.00;;;;;;5140365;27;20199;-45
2024/01/15 03:00:11;;;;;;;20.53;9.87;;;-0.80;99.90;;;;;;5140281;27;20247;-44
2024/01/15 03:02:39;;;;;;;20.47;10.67;;;-0.90;1.00;;;;;;5140217;27;20190;-42
2024/01/15 03:05:06;;;;;;;15.80;9.20;;;-1.00;1.00;;;;;;5140207;27;20881;-41
2024/01/15 03:07:32;;;;;;;18.10;9.93;;;-1.10;1.00;;;;;;5139871;27;20424;-42
2024/01/15 03:09:57;;;;;;;25.40;12.77;;;-1.10;1.00;;;;;;5138353;27;20416;-44
2024/01/15 03:12:23;;;;;;;16.97;10.00;;;-1.20;1.00;;;;;;5138326;27;20178;-45
2024/01/15 03:14:54;;;;;;;18.17;10.07;;;-1.20;1.00;;;;;;5139997;27;20544;-43
2024/01/15 03:17:20;;;;;;;14.77;8.43;;;-1.20;1.00;;;;;;5139630;27;20183;-41
2024/01/15 03:19:45;;;;;;;24.03;11.77;;;-1.20;1.00;;;;;;5139662;27;20489;-42
2024/01/15 03:22:11;;;;;;;17.60;10.57;;;-1.20;39.60;;;;;;5140040;27;20487;-41
2024/01/15 03:24:36;;;;;;;21.27;10.80;;;-1.20;1.00;;;;;;5135741;27;20211;-41
2024/01/15 03:27:02;;;;;;;18.67;9.60;;;-1.30;16.80;;;;;;5119781;28;20668;-44
2024/01/15 03:29:28;;;;;;;21.90;11.23;;;-1.30;99.90;;;;;;5119299;28;20245;-44
2024/01/15 03:31:53;;;;;;;18.57;11.10;;;-1.30;99.90;;;;;;5118785;28;20474;-43
2024/01/15 03:34:19;;;;;;;20.87;10.33;;;-1.30;99.90;;;;;;5118952;28;20455;-41
2024/01/15 03:36:45;;;;;;;19.60;11.23;;;-1.30;99.90;;;;;;5118485;28;20190;-44
2024/01/15 03:39:10;;;;;;;18.00;11.00;;;-1.30;99.90;;;;;;5118707;28;20275;-41
2024/01/15 03:41:37;;;;;;;17.50;9.97;;;-1.30;99.90;;;;;;5119222;28;20183;-41
2024/01/15 03:44:02;;;;;;;19.03;9.83;;;-1.20;99.90;;;;;;5118612;28;20223;-42
2024/01/15 03:46:28;;;;;;;22.33;11.03;;;-1.20;85.50;;;;;;5117410;28;20586;-43
2024/01/15 03:48:54;;;;;;;19.73;10.50;;;-1.20;94.70;;;;;;5117539;28;20172;-44
2024/01/15 03:51:20;;;;;;;15.43;9.27;;;-1.10;79.60;;;;;;5117756;28;20168;-43
2024/01/15 03:53:46;;;;;;;20.30;10.13;;;-1.10;99.90;;;;;;5118276;28;20183;-41
2024/01/15 03:56:11;;;;;;;17.27;9.80;;;-1.10;99.90;;;;;;5118017;28;20483;-43
2024/01/15 03:58:37;;;;;;;18.80;9.47;;;-1.10;99.90;;;;;;5116509;28;20477;-43
2024/01/15 04:01:03;;;;;;;19.83;9.70;;;-1.00;99.90;;;;;;5118225;28;20585;-44
2024/01/15 04:03:28;;;;;;;19.03;10.50;;;-0.90;99.90;;;;;;5118239;28;20265;-43
2024/01/15 04:05:54;;;;;;;21.13;10.77;;;-0.90;99.90;;;;;;5118840;28;20573;-43
2024/01/15 04:08:19;;;;;;;19.93;11.10;;;-0.90;99.90;;;;;;5118316;28;20183;-42
2024/01/15 04:10:45;;;;;;;20.00;10.63;;;-0.90;99.90;;;;;;5117949;28;20256;-42
2024/01/15 04:13:11;;;;;;;20.93;10.73;;;-0.90;99.90;;;;;;5117712;28;20248;-41
2024/01/15 04:15:36;;;;;;;20.10;10.60;;;-0.80;99.90;;;;;;5118281;28;20180;-43
2024/01/15 04:18:02;;;;;;;19.67;10.37;;;-0.80;99.90;;;;;;5117692;28;20286;-47
2024/01/15 04:20:28;;;;;;;20.27;11.20;;;-0.80;99.90;;;;;;5117396;28;20511;-43
2024/01/15 04:22:53;;;;;;;23.13;11.77;;;-0.80;99.90;;;;;;5117557;28;20437;-41
2024/01/15 04:25:19;;;;;;;18.63;9.73;;;-0.80;99.90;;;;;;5118098;28;20562;-44
2024/01/15 04:27:44;;;;;;;17.17;9.93;;;-0.90;99.90;;;;;;5117329;28;20164;-42
2024/01/15 04:30:10;;;;;;;15.37;9.27;;;-0.90;99.90;;;;;;5115098;28;20183;-41
2024/01/15 04:32:36;;;;;;;20.50;10.97;;;-0.90;99.90;;;;;;5113790;28;20248;-41
2024/01/15 04:35:02;;;;;;;23.70;11.90;;;-0.80;99.90;;;;;;5114785;28;20270;-42
2024/01/15 04:37:27;;;;;;;18.63;9.63;;;-0.80;99.90;;;;;;5113658;28;20455;-42
2024/01/15 04:39:54;;;;;;;17.17;9.67;;;-0.80;99.90;;;;;;5114214;28;20179;-42
2024/01/15 04:42:21;;;;;;;18.63;11.20;;;-0.80;99.90;;;;;;5114173;28;20504;-42
2024/01/15 04:44:46;;;;;;;21.17;10.83;;;-0.80;99.90;;;;;;5115435;28;20508;-41
2024/01/15 04:47:12;;;;;;;21.80;11.23;;;-0.80;99.90;;;;;;5115051;28;20453;-42
2024/01/15 04:49:38;;;;;;;21.00;11.27;;;-0.80;99.90;;;;;;5115561;28;20425;-46
2024/01/15 04:52:03;;;;;;;19.20;10.03;;;-0.80;99.90;;;;;;5115156;28;20262;-41
2024/01/15 04:54:29;;;;;;;23.53;11.57;;;-0.90;99.90;;;;;;5115901;28;20176;-42
2024/01/15 04:56:54;;;;;;;17.33;11.20;;;-0.90;99.90;;;;;;5115469;28;20186;-41
2024/01/15 04:59:20;;;;;;;20.07;11.43;;;-0.90;1.00;;;;;;5115192;28;20179;-43
2024/01/15 05:01:45;;;;;;;20.20;10.43;;;-0.90;1.00;;;;;;5114894;28;20288;-41
2024/01/15 05:04:11;;;;;;;19.60;10.43;;;-0.90;1.00;;;;;;5114725;28;20229;-42
2024/01/15 05:06:36;;;;;;;19.80;11.20;;;-0.90;1.00;;;;;;5115399;28;20228;-42
2024/01/15 05:09:03;;;;;;;20.77;11.77;;;-0.90;1.00;;;;;;5113598;28;20584;-43
2024/01/15 05:11:29;;;;;;;25.07;12.83;;;-0.90;1.00;;;;;;5115397;28;20650;-44
2024/01/15 05:13:54;;;;;;;19.50;10.80;;;-0.80;1.00;;;;;;5114902;28;20810;-43
2024/01/15 05:16:20;;;;;;;18.60;9.93;;;-0.80;99.90;;;;;;5115720;28;20248;-42
2024/01/15 05:18:45;;;;;;;19.10;11.00;;;-0.80;99.90;;;;;;5114840;28;20308;-42
2024/01/15 05:21:11;;;;;;;22.80;11.20;;;-0.90;1.00;;;;;;5115128;28;20247;-43
2024/01/15 05:23:36;;;;;;;22.43;11.50;;;-0.80;1.00;;;;;;5112992;28;20203;-42
2024/01/15 05:26:02;;;;;;;21.17;11.07;;;-0.80;99.90;;;;;;5116310;28;20183;-42
2024/01/15 05:28:28;;;;;;;19.70;11.33;;;-0.80;99.90;;;;;;5115715;28;20320;-43
2024/01/15 05:30:55;;;;;;;18.43;10.73;;;-0.80;1.00;;;;;;5114361;28;20183;-43
2024/01/15 05:33:22;;;;;;;18.63;9.43;;;-0.90;1.00;;;;;;5114520;28;20201;-41
2024/01/15 05:35:47;;;;;;;21.77;11.37;;;-0.80;1.00;;;;;;5114506;28;20409;-43
2024/01/15 05:38:13;;;;;;;22.27;11.80;;;-0.80;1.00;;;;;;5114678;28;20443;-43
2024/01/15 05:40:38;;;;;;;20.37;11.80;;;-0.80;99.90;;;;;;5114189;28;20250;-42
2024/01/15 05:43:04;;;;;;;17.93;10.43;;;-0.80;1.00;;;;;;5114686;28;20208;-42
2024/01/15 05:45:30;;;;;;;18.83;10.80;;;-0.80;1.00;;;;;;5113791;28;20235;-44
2024/01/15 05:47:56;;;;;;;21.70;10.97;;;-0.80;1.00;;;;;;5115835;28;20176;-44
2024/01/15 05:50:22;;;;;;;23.90;11.13;;;-0.80;1.00;;;;;;5114307;28;20422;-41
2024/01/15 05:52:47;;;;;;;21.97;10.17;;;-0.90;1.00;;;;;;5113509;28;20171;-41
2024/01/15 05:55:13;;;;;;;19.03;10.73;;;-0.90;1.00;;;;;;5114506;28;20432;-54
2024/01/15 05:57:38;;;;;;;19.43;10.70;;;-0.80;1.00;;;;;;5113741;28;20686;-42
2024/01/15 06:00:05;;;;;;;20.90;10.70;;;-0.90;1.00;;;;;;5112295;28;20271;-41
2024/01/15 06:02:30;;;;;;;17.13;9.97;;;-0.90;1.00;;;;;;5112880;28;20605;-45
2024/01/15 06:04:56;;;;;;;19.03;11.40;;;-0.90;1.00;;;;;;5113950;28;20697;-42
2024/01/15 06:07:23;;;;;;;14.00;8.07;;;-0.90;1.00;;;;;;5114840;28;20271;-42
2024/01/15 06:09:49;;;;;;;20.40;9.13;;;-0.90;1.00;;;;;;5113075;28;20187;-43
2024/01/15 06:12:15;;;;;;;16.63;9.73;;;-0.90;1.00;;;;;;5112080;28;20418;-43
2024/01/15 06:14:41;;;;;;;17.70;10.80;;;-0.80;1.00;;;;;;5113951;28;20507;-42
2024/01/15 06:17:07;;;;;;;17.47;10.23;;;-0.80;1.00;;;;;;5113624;28;20199;-41
2024/01/15 06:19:32;;;;;;;16.17;10.07;;;-0.80;1.00;;;;;;5114519;28;20543;-43
2024/01/15 06:21:58;;;;;;;20.10;11.40;;;-0.90;1.00;;;;;;5113848;28;20224;-43
2024/01/15 06:24:23;;;;;;;21.03;11.23;;;-0.90;1.00;;;;;;5114948;28;20203;-42
2024/01/15 06:26:49;;;;;;;20.17;11.90;;;-0.90;1.00;;;;;;5115621;28;20171;-44
2024/01/15 06:29:14;;;;;;;20.10;10.60;;;-0.90;1.00;;;;;;5115584;28;20264;-41
2024/01/15 06:31:40;;;;;;;23.57;13.53;;;-0.90;1.00;;;;;;5114869;28;20214;-42
2024/01/15 06:34:05;;;;;;;24.37;13.20;;;-0.90;1.00;;;;;;5115074;28;20241;-41
2024/01/15 06:36:31;;;;;;;21.53;12.77;;;-0.90;1.00;;;;;;5119030;28;20415;-43
2024/01/15 06:38:56;;;;;;;16.40;10.70;;;-0.90;1.00;;;;;;5117603;28;20187;-45
2024/01/15 06:41:22;;;;;;;14.60;9.70;;;-0.90;1.00;;;;;;5116852;28;20180;-42
2024/01/15 06:43:48;;;;;;;18.80;11.27;;;-0.90;1.00;;;;;;5116932;28;20176;-43
2024/01/15 06:46:20;;;;;;;22.90;11.67;;;-1.00;1.00;;;;;;5118445;28;20175;-40
2024/01/15 06:48:46;;;;;;;19.43;10.60;;;-1.00;1.00;;;;;;5116029;28;20404;-42
2024/01/15 06:51:12;;;;;;;17.53;10.80;;;-1.00;1.00;;;;;;5116603;28;20961;-42
2024/01/15 06:53:37;;;;;;;19.97;10.60;;;-1.00;1.00;;;;;;5115277;28;20179;-41
2024/01/15 06:56:03;;;;;;;22.10;11.97;;;-1.00;1.00;;;;;;5117510;28;20180;-42
2024/01/15 06:58:31;;;;;;;23.13;12.37;;;-1.00;1.00;;;;;;5113313;28;20183;-41
2024/01/15 07:00:56;;;;;;;21.40;12.37;;;-1.00;1.00;;;;;;5117166;28;20172;-42
2024/01/15 07:03:22;;;;;;;22.13;11.43;;;-1.00;1.00;;;;;;5115521;28;20751;-42
2024/01/15 07:05:47;;;;;;;24.80;14.17;;;-1.00;1.00;;;;;;5104070;28;20444;-42
2024/01/15 07:08:13;;;;;;;21.97;12.37;;;-1.00;1.00;;;;;;5096582;28;20779;-41
2024/01/15 07:10:38;;;;;;;22.33;11.37;;;-1.00;1.00;;;;;;5095879;28;20195;-43
2024/01/15 07:13:05;;;;;;;18.90;11.50;;;-1.00;1.00;;;;;;5097539;28;20173;-41
2024/01/15 07:15:31;;;;;;;18.00;11.60;;;-1.00;1.00;;;;;;5097805;28;20180;-42
2024/01/15 07:17:56;;;;;;;23.40;11.37;;;-1.00;1.00;;;;;;5096635;28;20436;-42
2024/01/15 07:20:22;;;;;;;19.23;10.87;;;-1.00;1.00;;;;;;5096309;28;20592;-42
2024/01/15 07:22:47;;;;;;;21.43;12.90;;;-1.00;1.00;;;;;;5094486;28;20430;-42
2024/01/15 07:25:13;;;;;;;20.90;11.40;;;-0.90;1.00;;;;;;5096809;28;20210;-45
2024/01/15 07:27:38;;;;;;;17.83;11.10;;;-1.00;1.00;;;;;;5097164;28;20537;-43
2024/01/15 07:30:06;;;;;;;20.83;11.40;;;-0.90;1.00;;;;;;5096156;28;20169;-44
2024/01/15 07:32:31;;;;;;;21.97;11.10;;;-0.90;1.00;;;;;;5095727;28;20509;-41
2024/01/15 07:34:59;;;;;;;18.57;11.00;;;-0.80;99.90;;;;;;5097340;28;20434;-44
2024/01/15 07:37:24;;;;;;;19.60;10.47;;;-0.80;99.90;;;;;;5098194;28;20177;-44
2024/01/15 07:39:50;;;;;;;16.80;10.53;;;-0.80;99.90;;;;;;5096867;28;20666;-42
2024/01/15 07:42:16;;;;;;;20.13;10.10;;;-0.80;99.90;;;;;;5097012;28;20225;-42
2024/01/15 07:44:41;;;;;;;16.90;9.73;;;-0.70;27.00;;;;;;5096964;28;20295;-42
2024/01/15 07:47:08;;;;;;;17.50;10.33;;;-0.70;1.30;;;;;;5096224;28;20184;-43
2024/01/15 07:49:34;;;;;;;15.20;9.40;;;-0.70;1.00;;;;;;5097704;28;20624;-42
2024/01/15 07:52:00;;;;;;;16.37;9.17;;;-0.60;1.00;;;;;;5098001;28;20812;-44
2024/01/15 07:54:25;;;;;;;15.10;9.80;;;-0.50;99.90;;;;;;5098152;28;20402;-41
2024/01/15 07:56:59;;;;;;;14.40;8.77;;;-0.50;2.60;;;;;;5094789;28;20283;-41
2024/01/15 07:59:25;;;;;;;15.70;8.90;;;-0.60;1.00;;;;;;5095015;28;20276;-46
2024/01/15 08:01:51;;;;;;;16.93;10.03;;;-0.50;1.00;;;;;;5094633;28;20820;-42
2024/01/15 08:04:17;;;;;;;16.13;8.80;;;-0.50;1.00;;;;;;5095983;28;20534;-42
2024/01/15 08:06:43;;;;;;;16.00;9.70;;;-0.40;99.90;;;;;;5093623;28;20459;-43
2024/01/15 08:09:08;;;;;;;13.23;8.47;;;-0.40;63.60;;;;;;5094670;28;20200;-41
2024/01/15 08:11:35;;;;;;;15.63;9.67;;;-0.40;43.70;;;;;;5095950;28;20188;-43
2024/01/15 08:14:00;;;;;;;13.97;8.50;;;-0.40;1.00;;;;;;5096946;28;20570;-42
2024/01/15 08:16:27;;;;;;;17.77;9.30;;;-0.40;1.00;;;;;;5095725;28;20697;-41
2024/01/15 08:18:53;;;;;;;14.50;8.33;;;-0.40;54.70;;;;;;5097224;28;20846;-44
2024/01/15 08:21:19;;;;;;;15.50;9.07;;;-0.30;73.70;;;;;;5096751;28;20507;-42
2024/01/15 08:23:44;;;;;;;13.20;8.73;;;-0.30;1.00;;;;;;5097913;28;20422;-41
2024/01/15 08:26:10;;;;;;;14.43;8.23;;;-0.30;1.00;;;;;;5095623;28;20226;-43
2024/01/15 08:28:36;;;;;;;10.73;7.07;;;-0.10;99.90;;;;;;5096222;28;20562;-42
2024/01/15 08:31:02;;;;;;;12.73;9.00;;;-0.10;1.00;;;;;;5094358;28;21002;-42
2024/01/15 08:33:28;;;;;;;17.50;8.33;;;0.00;99.90;;;;;;5094085;28;20249;-44
2024/01/15 08:35:54;;;;;;;13.70;7.97;;;0.10;1.00;;;;;;5094307;28;20427;-40
2024/01/15 08:38:19;;;;;;;14.80;7.60;;;0.10;99.90;;;;;;5096161;28;20717;-41
2024/01/15 08:40:45;;;;;;;11.87;8.47;;;0.10;99.90;;;;;;5096277;28;20210;-44
2024/01/15 08:43:10;;;;;;;11.97;7.23;;;0.20;99.90;;;;;;5095717;28;20203;-41
2024/01/15 08:45:36;;;;;;;9.80;6.60;;;0.30;1.00;;;;;;5095428;28;20212;-45
2024/01/15 08:48:02;;;;;;;11.13;6.90;;;0.30;99.90;;;;;;5096012;28;20442;-49
2024/01/15 08:50:27;;;;;;;10.47;6.87;;;0.20;1.00;;;;;;5095333;28;20188;-41
2024/01/15 08:52:53;;;;;;;8.30;6.40;;;0.20;99.90;;;;;;5095823;28;20183;-41
2024/01/15 08:55:18;;;;;;;15.83;7.07;;;0.20;1.00;;;;;;5095049;28;20253;-41
2024/01/15 08:57:44;;;;;;;10.80;6.80;;;0.20;1.00;;;;;;5095221;28;20266;-43
2024/01/15 09:00:10;;;;;;;8.70;5.80;;;0.20;1.00;;;;;;5096251;28;20240;-42
2024/01/15 09:02:36;;;;;;;9.93;5.70;;;0.30;1.00;;;;;;5095107;28;20206;-43
2024/01/15 09:05:01;;;;;;;12.17;7.67;;;0.30;1.00;;;;;;5093886;28;20571;-41
2024/01/15 09:07:27;;;;;;;12.13;6.50;;;0.30;1.00;;;;;;5095640;28;20648;-41
2024/01/15 09:09:53;;;;;;;11.30;6.87;;;0.20;11.30;;;;;;5096472;28;20184;-42
2024/01/15 09:12:20;;;;;;;9.77;5.53;;;0.30;99.90;;;;;;5095685;28;20173;-44
2024/01/15 09:14:46;;;;;;;11.43;6.60;;;0.40;1.00;;;;;;5095980;28;20462;-41
2024/01/15 09:17:12;;;;;;;12.47;6.87;;;0.40;1.00;;;;;;5094691;28;20758;-41
2024/01/15 09:19:39;;;;;;;12.00;7.17;;;0.40;1.00;;;;;;5094629;28;20445;-41
2024/01/15 09:22:05;;;;;;;9.70;6.30;;;0.40;1.00;;;;;;5096143;28;20198;-42
2024/01/15 09:24:31;;;;;;;11.67;6.73;;;0.50;18.90;;;;;;5095294;28;20568;-42
2024/01/15 09:26:56;;;;;;;8.60;5.60;;;0.50;1.00;;;;;;5095397;28;20699;-44
2024/01/15 09:29:23;;;;;;;10.33;6.27;;;0.60;1.00;;;;;;5094997;28;20173;-42
2024/01/15 09:31:50;;;;;;;10.93;6.60;;;0.50;1.00;;;;;;5095218;28;20191;-44
2024/01/15 09:34:15;;;;;;;11.63;5.60;;;0.90;1.00;;;;;;5095495;28;20430;-46
2024/01/15 09:36:42;;;;;;;7.47;5.57;;;1.30;1.00;;;;;;5095907;28;20438;-46
2024/01/15 09:39:11;;;;;;;11.93;6.00;;;2.20;99.90;;;;;;5093788;28;20249;-44
2024/01/15 09:41:39;;;;;;;10.40;5.97;;;2.90;57.70;;;;;;5093923;28;20728;-44
2024/01/15 09:44:05;;;;;;;13.73;7.37;;;3.20;99.90;;;;;;5093748;28;20477;-43
2024/01/15 09:46:32;;;;;;;10.30;6.23;;;3.00;99.90;;;;;;5077527;28;20444;-41
2024/01/15 09:48:58;;;;;;;10.43;6.13;;;2.70;99.90;;;;;;5094772;28;20234;-42
2024/01/15 09:51:24;;;;;;;8.93;6.60;;;2.30;1.00;;;;;;5094201;28;20411;-41
2024/01/15 09:53:50;;;;;;;11.30;5.87;;;1.90;1.00;;;;;;5092592;28;20427;-42
2024/01/15 09:56:16;;;;;;;12.07;6.40;;;1.50;1.00;;;;;;5094989;28;20495;-44
2024/01/15 09:58:42;;;;;;;9.20;5.93;;;1.50;99.90;;;;;;5094946;28;20446;-50
2024/01/15 10:01:09;;;;;;;9.67;5.60;;;1.40;99.90;;;;;;5095163;28;20867;-42
2024/01/15 10:03:34;;;;;;;11.07;6.20;;;1.20;99.90;;;;;;5094467;28;20391;-42
2024/01/15 10:06:00;;;;;;;7.57;5.17;;;1.10;1.00;;;;;;5093965;28;20973;-42
2024/01/15 10:08:26;;;;;;;10.10;5.10;;;1.00;1.00;;;;;;5094755;28;20329;-42
2024/01/15 10:10:51;;;;;;;8.70;5.83;;;1.00;1.00;;;;;;5097059;28;20555;-42
2024/01/15 10:13:17;;;;;;;10.87;6.30;;;1.10;1.00;;;;;;5098088;28;20253;-44
2024/01/15 10:15:46;;;;;;;10.43;5.57;;;1.10;1.00;;;;;;5097349;28;20245;-42
2024/01/15 10:18:12;;;;;;;11.70;6.13;;;1.00;1.00;;;;;;5097930;28;20191;-43
2024/01/15 10:20:38;;;;;;;9.30;6.17;;;0.90;99.90;;;;;;5097414;28;20879;-45
2024/01/15 10:23:04;;;;;;;11.03;6.80;;;0.80;99.90;;;;;;5097833;28;20202;-42
2024/01/15 10:25:30;;;;;;;12.00;7.00;;;0.80;99.90;;;;;;5099743;28;20248;-43
2024/01/15 10:28:03;;;;;;;11.10;7.00;;;0.80;1.00;;;;;;5098116;28;20403;-42
2024/01/15 10:30:29;;;;;;;9.60;6.10;;;0.80;1.00;;;;;;5099747;28;20426;-44
2024/01/15 10:32:59;;;;;;;9.67;7.47;;;0.80;1.00;;;;;;5100082;28;20520;-44
2024/01/15 10:35:30;;;;;;;10.53;7.80;;;0.80;1.00;;;;;;5098864;28;20423;-42
2024/01/15 10:37:56;;;;;;;10.83;7.43;;;0.90;1.00;;;;;;5098593;28;20430;-41
2024/01/15 10:40:21;;;;;;;8.97;5.40;;;0.90;1.00;;;;;;5097681;28;20930;-41
2024/01/15 10:42:47;;;;;;;8.87;6.83;;;0.80;97.40;;;;;;5099775;28;20184;-41
2024/01/15 10:45:13;;;;;;;14.70;6.73;;;0.90;99.90;;;;;;5097176;28;20204;-41
2024/01/15 10:47:39;;;;;;;12.37;7.57;;;1.00;99.90;;;;;;5098621;28;20253;-41
2024/01/15 10:50:07;;;;;;;13.90;7.20;;;0.80;99.90;;;;;;5098788;28;20438;-43
2024/01/15 10:52:34;;;;;;;11.17;7.20;;;1.00;99.90;;;;;;5098782;28;20185;-43
2024/01/15 10:55:00;;;;;;;10.50;6.20;;;1.00;51.60;;;;;;5099522;28;20414;-42
2024/01/15 10:57:26;;;;;;;9.93;6.47;;;1.10;99.90;;;;;;5098756;28;20417;-43
2024/01/15 10:59:51;;;;;;;11.80;6.53;;;1.00;99.90;;;;;;5098642;28;20647;-42
2024/01/15 11:02:17;;;;;;;10.40;6.30;;;1.00;1.00;;;;;;5097612;28;21138;-43
2024/01/15 11:04:43;;;;;;;14.13;6.20;;;0.90;1.00;;;;;;5097804;28;20204;-41
2024/01/15 11:07:10;;;;;;;13.23;7.10;;;0.80;99.90;;;;;;5098730;28;20184;-41
2024/01/15 11:09:36;;;;;;;11.37;6.77;;;0.90;1.00;;;;;;5097075;28;20280;-40
2024/01/15 11:12:13;;;;;;;8.90;6.10;;;0.70;99.90;;;;;;5098682;28;20431;-41
2024/01/15 11:14:40;;;;;;;10.43;6.33;;;0.70;1.00;;;;;;5098009;28;20720;-44
2024/01/15 11:17:06;;;;;;;10.57;6.50;;;0.60;99.90;;;;;;5098321;28;20449;-41
2024/01/15 11:19:41;;;;;;;11.13;6.40;;;0.60;99.90;;;;;;5097774;28;20712;-41
2024/01/15 11:22:18;;;;;;;11.80;7.10;;;0.60;99.90;;;;;;5096783;28;20454;-43
2024/01/15 11:24:44;;;;;;;12.83;7.77;;;0.60;99.90;;;;;;5079575;28;20477;-42
2024/01/15 11:27:09;;;;;;;12.57;8.07;;;0.60;99.90;;;;;;5097102;28;20700;-44
2024/01/15 11:29:36;;;;;;;8.03;4.87;;;0.60;99.90;;;;;;5096944;28;20221;-41
2024/01/15 11:32:06;;;;;;;10.67;6.63;;;0.60;99.90;;;;;;5095520;28;20238;-42
2024/01/15 11:34:57;;;;;;;11.67;6.40;;;0.60;84.80;;;;;;5096006;28;20422;-43
2024/01/15 11:37:23;;;;;;;10.40;6.50;;;0.60;99.90;;;;;;5096548;28;20465;-41
2024/01/15 11:39:51;;;;;;;10.70;6.20;;;0.60;1.00;;;;;;5097530;28;20553;-42
2024/01/15 11:42:18;;;;;;;15.80;6.00;;;0.70;1.00;;;;;;5097639;28;20180;-43
2024/01/15 11:44:44;;;;;;;12.30;6.87;;;0.70;1.00;;;;;;5099068;28;20466;-42
2024/01/15 11:47:14;;;;;;;9.67;6.97;;;0.70;10.40;;;;;;5098751;28;20436;-44
2024/01/15 11:49:48;;;;;;;10.83;7.27;;;0.70;99.90;;;;;;5096636;28;20180;-41
2024/01/15 11:52:17;;;;;;;9.10;6.67;;;0.70;25.10;;;;;;5097305;28;20491;-41
2024/01/15 11:54:56;;;;;;;10.97;6.90;;;0.70;99.90;;;;;;5095089;28;20502;-42
2024/01/15 11:57:38;;;;;;;11.17;6.73;;;0.70;1.00;;;;;;5096530;28;20418;-44
2024/01/15 12:00:05;;;;;;;12.90;7.30;;;0.70;1.00;;;;;;5097373;28;20429;-40
2024/01/15 12:02:31;;;;;;;9.40;5.73;;;0.70;99.90;;;;;;5096952;28;20450;-41
2024/01/15 12:04:56;;;;;;;15.37;7.97;;;0.70;99.90;;;;;;5097504;28;20474;-42
2024/01/15 12:07:22;;;;;;;12.23;8.03;;;0.70;1.00;;;;;;5096726;28;20271;-43
2024/01/15 12:09:47;;;;;;;12.97;8.60;;;0.70;1.00;;;;;;5096635;28;20255;-41
2024/01/15 12:12:24;;;;;;;16.10;9.47;;;0.50;99.90;;;;;;5096725;28;20176;-41
2024/01/15 12:14:49;;;;;;;12.03;8.30;;;0.60;99.90;;;;;;5096564;28;20278;-42
2024/01/15 12:17:16;;;;;;;10.17;6.87;;;0.50;99.90;;;;;;5094354;28;20562;-41
2024/01/15 12:19:41;;;;;;;12.50;7.30;;;0.50;99.90;;;;;;5094962;28;20180;-42
2024/01/15 12:22:07;;;;;;;17.67;9.03;;;0.40;99.90;;;;;;5094299;28;20567;-44
2024/01/15 12:24:32;;;;;;;13.00;8.63;;;0.30;99.90;;;;;;5095545;28;20310;-41
2024/01/15 12:26:58;;;;;;;11.10;7.33;;;0.30;99.90;;;;;;5096167;28;20187;-46
2024/01/15 12:29:23;;;;;;;11.93;7.47;;;0.30;99.90;;;;;;5096495;28;20191;-41
2024/01/15 12:31:49;;;;;;;16.60;9.63;;;0.30;99.90;;;;;;5094656;28;20219;-44
2024/01/15 12:34:14;;;;;;;15.03;9.90;;;0.20;99.90;;;;;;5096081;28;20436;-42